createdAt,value
2023-03-02T00:02:10.868Z,77.20
2023-03-02T00:04:50.649Z,76.80
2023-03-02T00:07:24.126Z,76.60
2023-03-02T00:09:51.302Z,77.20
2023-03-02T00:12:18.269Z,77.40
2023-03-02T00:14:45.441Z,77.50
2023-03-02T00:17:12.645Z,77.50
2023-03-02T00:19:39.622Z,77.60
2023-03-02T00:22:06.616Z,77.70
2023-03-02T00:24:33.589Z,77.80
2023-03-02T00:27:00.507Z,77.90
2023-03-02T00:29:27.688Z,77.90
2023-03-02T00:31:54.811Z,77.90
2023-03-02T00:34:21.894Z,77.90
2023-03-02T00:36:49.542Z,77.90
2023-03-02T00:39:20.136Z,77.90
2023-03-02T00:41:48.291Z,77.90
2023-03-02T00:44:17.439Z,77.80
2023-03-02T00:46:45.262Z,77.80
2023-03-02T00:49:12.845Z,77.80
2023-03-02T00:51:39.733Z,77.80
2023-03-02T00:54:06.712Z,77.70
2023-03-02T00:56:34.007Z,77.60
2023-03-02T00:59:28.775Z,77.50
2023-03-02T01:01:59.785Z,77.10
2023-03-02T01:04:31.139Z,77.40
2023-03-02T01:07:01.412Z,77.50
2023-03-02T01:09:29.325Z,77.40
2023-03-02T01:11:56.496Z,77.50
2023-03-02T01:14:24.449Z,77.50
2023-03-02T01:16:51.545Z,77.30
2023-03-02T01:19:18.809Z,77.30
2023-03-02T01:21:45.837Z,77.30
2023-03-02T01:24:13.089Z,77.30
2023-03-02T01:26:39.922Z,77.30
2023-03-02T01:29:06.988Z,77.30
2023-03-02T01:31:33.819Z,77.40
2023-03-02T01:34:00.731Z,77.50
2023-03-02T01:36:27.620Z,77.50
2023-03-02T01:38:54.727Z,77.50
2023-03-02T01:41:21.666Z,77.60
2023-03-02T01:43:48.578Z,77.60
2023-03-02T01:46:35.184Z,77.50
2023-03-02T01:49:12.327Z,75.90
2023-03-02T01:51:46.890Z,77.50
2023-03-02T01:54:23.111Z,77.10
2023-03-02T01:56:58.068Z,77.30
2023-03-02T01:59:28.104Z,77.30
2023-03-02T02:02:01.766Z,77.50
2023-03-02T02:04:31.042Z,77.20
2023-03-02T02:07:04.590Z,77.40
2023-03-02T02:09:37.941Z,77.00
2023-03-02T02:12:05.885Z,77.10
2023-03-02T02:14:33.062Z,77.30
2023-03-02T02:17:00.077Z,77.40
2023-03-02T02:19:56.663Z,77.30
2023-03-02T02:22:55.392Z,75.30
2023-03-02T02:25:58.376Z,76.50
2023-03-02T02:28:33.064Z,76.10
2023-03-02T02:31:22.497Z,77.10
2023-03-02T02:34:03.095Z,76.50
2023-03-02T02:36:38.796Z,76.80
2023-03-02T02:39:13.501Z,77.20
2023-03-02T02:41:42.350Z,77.30
2023-03-02T02:44:16.139Z,77.50
2023-03-02T02:46:44.979Z,77.40
2023-03-02T02:49:40.395Z,77.60
2023-03-02T02:52:12.705Z,76.80
2023-03-02T02:54:39.778Z,77.70
2023-03-02T02:57:07.445Z,77.90
2023-03-02T02:59:43.630Z,77.70
2023-03-02T03:02:27.768Z,77.30
2023-03-02T03:05:02.584Z,77.20
2023-03-02T03:07:31.518Z,77.90
2023-03-02T03:10:24.839Z,77.80
2023-03-02T03:12:52.407Z,77.10
2023-03-02T03:15:19.720Z,77.80
2023-03-02T03:17:58.392Z,77.80
2023-03-02T03:20:27.229Z,76.70
2023-03-02T03:22:54.485Z,77.80
2023-03-02T03:25:25.961Z,77.90
2023-03-02T03:27:52.779Z,77.80
2023-03-02T03:30:19.824Z,78.40
2023-03-02T03:32:46.822Z,78.00
2023-03-02T03:35:13.761Z,78.00
2023-03-02T03:37:42.210Z,78.00
2023-03-02T03:40:10.535Z,78.00
2023-03-02T03:42:38.318Z,78.10
2023-03-02T03:45:08.624Z,78.10
2023-03-02T03:47:36.376Z,78.10
2023-03-02T03:50:03.868Z,78.10
2023-03-02T03:52:30.958Z,78.20
2023-03-02T03:55:00.354Z,78.20
2023-03-02T03:57:31.172Z,78.10
2023-03-02T03:59:58.066Z,78.10
2023-03-02T04:02:25.089Z,78.00
2023-03-02T04:04:52.118Z,77.90
2023-03-02T04:07:19.444Z,77.90
2023-03-02T04:09:46.401Z,77.90
2023-03-02T04:12:13.261Z,77.90
2023-03-02T04:14:40.145Z,77.80
2023-03-02T04:17:07.082Z,77.80
2023-03-02T04:19:35.551Z,77.80
2023-03-02T04:22:04.082Z,77.80
2023-03-02T04:24:31.438Z,77.80
2023-03-02T04:26:58.413Z,77.70
2023-03-02T04:29:25.368Z,77.70
2023-03-02T04:31:52.328Z,77.60
2023-03-02T04:34:19.449Z,77.70
2023-03-02T04:36:46.696Z,77.70
2023-03-02T04:39:17.685Z,77.70
2023-03-02T04:41:45.964Z,77.50
2023-03-02T04:44:14.540Z,77.30
2023-03-02T04:46:44.699Z,77.10
2023-03-02T04:49:13.721Z,77.20
2023-03-02T04:51:44.937Z,77.20
2023-03-02T04:54:26.444Z,77.30
2023-03-02T04:56:55.104Z,76.40
2023-03-02T04:59:26.633Z,77.60
2023-03-02T05:01:57.469Z,77.70
2023-03-02T05:04:25.903Z,77.70
2023-03-02T05:06:52.887Z,77.80
2023-03-02T05:09:21.227Z,77.80
2023-03-02T05:11:48.102Z,77.80
2023-03-02T05:14:14.960Z,77.80
2023-03-02T05:16:42.667Z,77.60
2023-03-02T05:19:12.388Z,77.50
2023-03-02T05:21:40.027Z,77.60
2023-03-02T05:24:07.349Z,77.70
2023-03-02T05:26:34.981Z,77.70
2023-03-02T05:29:02.157Z,77.70
2023-03-02T05:31:40.636Z,77.50
2023-03-02T05:34:10.919Z,77.10
2023-03-02T05:36:38.604Z,77.60
2023-03-02T05:39:07.077Z,77.70
2023-03-02T05:41:34.430Z,77.90
2023-03-02T05:44:01.878Z,77.90
2023-03-02T05:46:28.862Z,78.00
2023-03-02T05:48:55.909Z,77.80
2023-03-02T05:51:22.850Z,77.70
2023-03-02T05:53:49.740Z,77.80
2023-03-02T05:56:16.663Z,77.90
2023-03-02T05:58:43.532Z,78.50
2023-03-02T06:01:14.210Z,78.10
2023-03-02T06:03:43.280Z,78.30
2023-03-02T06:06:14.153Z,78.40
2023-03-02T06:08:42.824Z,78.50
2023-03-02T06:11:11.122Z,78.50
2023-03-02T06:13:38.761Z,78.50
2023-03-02T06:16:06.403Z,78.60
2023-03-02T06:18:34.180Z,78.60
2023-03-02T06:21:01.392Z,78.60
2023-03-02T06:23:28.637Z,78.70
2023-03-02T06:25:55.661Z,78.70
2023-03-02T06:28:22.468Z,78.80
2023-03-02T06:30:50.236Z,78.80
2023-03-02T06:33:19.298Z,78.90
2023-03-02T06:35:47.110Z,79.10
2023-03-02T06:38:14.085Z,79.40
2023-03-02T06:40:40.949Z,79.50
2023-03-02T06:43:07.814Z,79.60
2023-03-02T06:45:34.785Z,79.70
2023-03-02T06:48:02.305Z,80.00
2023-03-02T06:50:29.305Z,80.10
2023-03-02T06:52:56.405Z,80.20
2023-03-02T06:55:23.455Z,80.40
2023-03-02T06:57:51.012Z,80.40
2023-03-02T07:00:25.894Z,80.40
2023-03-02T07:03:05.456Z,80.60
2023-03-02T07:05:32.509Z,80.60
2023-03-02T07:08:00.140Z,80.60
2023-03-02T07:10:27.501Z,80.50
2023-03-02T07:12:54.676Z,80.30
2023-03-02T07:15:22.168Z,80.40
2023-03-02T07:17:49.066Z,80.60
2023-03-02T07:20:18.566Z,80.70
2023-03-02T07:22:45.616Z,81.20
2023-03-02T07:25:13.644Z,80.90
2023-03-02T07:27:41.641Z,80.80
2023-03-02T07:30:09.834Z,81.00
2023-03-02T07:32:36.848Z,81.30
2023-03-02T07:35:04.158Z,82.30
2023-03-02T07:37:31.080Z,82.90
2023-03-02T07:40:00.297Z,83.00
2023-03-02T07:42:27.565Z,82.40
2023-03-02T07:44:54.532Z,81.70
2023-03-02T07:47:22.043Z,80.70
2023-03-02T07:49:48.965Z,79.40
2023-03-02T07:52:15.981Z,78.20
2023-03-02T07:54:42.950Z,77.10
2023-03-02T07:57:09.901Z,76.00
2023-03-02T07:59:36.787Z,75.00
2023-03-02T08:02:03.734Z,73.70
2023-03-02T08:04:30.680Z,72.60
2023-03-02T08:06:57.544Z,71.20
2023-03-02T08:09:24.357Z,69.70
2023-03-02T08:11:51.180Z,68.50
2023-03-02T08:14:18.020Z,68.60
2023-03-02T08:16:45.017Z,68.30
2023-03-02T08:19:11.988Z,66.80
2023-03-02T08:21:39.066Z,66.00
2023-03-02T08:24:06.389Z,65.70
2023-03-02T08:26:33.336Z,65.50
2023-03-02T08:29:00.331Z,65.40
2023-03-02T08:31:27.792Z,64.00
2023-03-02T08:33:54.783Z,63.50
2023-03-02T08:36:22.247Z,64.30
2023-03-02T08:38:49.626Z,65.40
2023-03-02T08:41:21.792Z,66.70
2023-03-02T08:43:50.251Z,68.00
2023-03-02T08:46:19.205Z,68.60
2023-03-02T08:48:47.068Z,68.40
2023-03-02T08:51:18.569Z,69.10
2023-03-02T08:53:50.409Z,67.80
2023-03-02T08:56:19.770Z,67.80
2023-03-02T08:58:49.156Z,67.30
2023-03-02T09:01:20.490Z,66.70
2023-03-02T09:03:47.616Z,65.90
2023-03-02T09:06:15.599Z,66.40
2023-03-02T09:08:43.617Z,66.20
2023-03-02T09:11:11.004Z,66.00
2023-03-02T09:13:38.235Z,65.40
2023-03-02T09:16:06.444Z,65.50
2023-03-02T09:18:34.096Z,64.60
2023-03-02T09:21:01.717Z,63.90
2023-03-02T09:23:29.243Z,63.40
2023-03-02T09:25:56.318Z,62.80
2023-03-02T09:28:24.332Z,62.30
2023-03-02T09:30:53.573Z,62.00
2023-03-02T09:33:21.433Z,61.30
2023-03-02T09:35:48.400Z,61.30
2023-03-02T09:38:17.148Z,60.00
2023-03-02T09:40:58.807Z,59.60
2023-03-02T09:43:36.229Z,55.60
2023-03-02T09:46:34.624Z,59.20
2023-03-02T09:49:42.309Z,54.10
2023-03-02T09:52:31.716Z,53.30
2023-03-02T09:55:22.447Z,56.60
2023-03-02T09:57:50.740Z,53.20
2023-03-02T10:00:38.313Z,57.40
2023-03-02T10:03:17.012Z,51.60
2023-03-02T10:05:49.297Z,57.60
2023-03-02T10:08:27.560Z,57.10
2023-03-02T10:11:27.125Z,54.20
2023-03-02T10:14:15.094Z,52.20
2023-03-02T10:16:52.595Z,57.70
2023-03-02T10:19:42.216Z,54.50
2023-03-02T10:22:35.274Z,50.30
2023-03-02T10:25:39.875Z,50.20
2023-03-02T10:28:19.182Z,51.20
2023-03-02T10:30:53.432Z,51.00
2023-03-02T10:33:22.510Z,57.20
2023-03-02T10:35:53.109Z,56.60
2023-03-02T10:38:25.300Z,56.00
2023-03-02T10:41:02.163Z,53.40
2023-03-02T10:43:47.433Z,54.90
2023-03-02T10:46:14.781Z,53.80
2023-03-02T10:48:59.698Z,58.00
2023-03-02T10:51:35.644Z,53.00
2023-03-02T10:54:12.200Z,53.80
2023-03-02T10:56:43.428Z,57.10
2023-03-02T10:59:45.710Z,56.90
2023-03-02T11:02:23.038Z,52.00
2023-03-02T11:05:19.208Z,55.30
2023-03-02T11:08:11.274Z,49.70
2023-03-02T11:10:50.740Z,49.60
2023-03-02T11:13:29.711Z,54.20
2023-03-02T11:16:02.018Z,53.60
2023-03-02T11:18:40.084Z,51.00
2023-03-02T11:21:22.276Z,50.50
2023-03-02T11:24:19.451Z,53.90
2023-03-02T11:26:54.972Z,51.40
2023-03-02T11:29:41.639Z,51.70
2023-03-02T11:32:08.462Z,56.70
2023-03-02T11:34:58.078Z,57.10
2023-03-02T11:37:42.648Z,51.70
2023-03-02T11:40:18.132Z,53.30
2023-03-02T11:42:47.158Z,59.90
2023-03-02T11:45:13.977Z,60.70
2023-03-02T11:48:03.818Z,62.00
2023-03-02T11:50:36.878Z,57.70
2023-03-02T11:53:18.023Z,62.30
2023-03-02T11:55:48.734Z,58.20
2023-03-02T11:58:21.126Z,65.00
2023-03-02T12:00:49.911Z,59.50
2023-03-02T12:03:16.648Z,66.20
2023-03-02T12:06:01.310Z,66.90
2023-03-02T12:08:33.205Z,67.30
2023-03-02T12:11:17.282Z,68.50
2023-03-02T12:14:05.262Z,69.10
2023-03-02T12:16:35.854Z,62.40
2023-03-02T12:19:28.323Z,67.70
2023-03-02T12:22:10.517Z,63.00
2023-03-02T12:24:41.634Z,67.00
2023-03-02T12:27:20.838Z,71.90
2023-03-02T12:30:09.719Z,68.40
2023-03-02T12:32:37.316Z,70.00
2023-03-02T12:35:13.782Z,73.30
2023-03-02T12:37:57.617Z,69.30
2023-03-02T12:41:17.507Z,69.20
2023-03-02T12:44:47.688Z,70.90
2023-03-02T12:47:27.709Z,65.50
2023-03-02T12:50:07.841Z,70.90
2023-03-02T12:52:36.790Z,71.50
2023-03-02T12:55:09.717Z,73.80
2023-03-02T12:57:54.304Z,70.30
2023-03-02T13:00:28.298Z,68.10
2023-03-02T13:02:57.752Z,71.40
2023-03-02T13:05:29.833Z,73.80
2023-03-02T13:08:00.152Z,73.60
2023-03-02T13:10:31.196Z,74.10
2023-03-02T13:13:00.274Z,75.20
2023-03-02T13:15:29.766Z,75.20
2023-03-02T13:18:00.119Z,74.80
2023-03-02T13:20:29.932Z,73.90
2023-03-02T13:22:57.205Z,74.40
2023-03-02T13:25:31.162Z,75.10
2023-03-02T13:28:07.280Z,74.40
2023-03-02T13:30:37.469Z,74.60
2023-03-02T13:33:23.190Z,74.60
2023-03-02T13:35:50.363Z,67.90
2023-03-02T13:38:44.687Z,74.70
2023-03-02T13:41:25.942Z,73.60
2023-03-02T13:43:55.195Z,67.70
2023-03-02T13:46:22.680Z,73.50
2023-03-02T13:49:11.235Z,73.30
2023-03-02T13:51:43.987Z,66.50
2023-03-02T13:54:24.961Z,71.00
2023-03-02T13:56:53.723Z,70.30
2023-03-02T13:59:22.374Z,70.30
2023-03-02T14:01:50.034Z,70.70
2023-03-02T14:04:23.958Z,71.80
2023-03-02T14:06:54.048Z,71.10
2023-03-02T14:09:21.373Z,71.70
2023-03-02T14:11:52.819Z,72.20
2023-03-02T14:14:25.053Z,72.10
2023-03-02T14:16:52.369Z,71.70
2023-03-02T14:19:20.181Z,72.00
2023-03-02T14:21:47.978Z,72.00
2023-03-02T14:24:14.958Z,72.40
2023-03-02T14:26:47.349Z,72.70
2023-03-02T14:29:38.935Z,72.70
2023-03-02T14:32:08.513Z,74.50
2023-03-02T14:34:37.287Z,76.90
2023-03-02T14:37:16.293Z,78.20
2023-03-02T14:39:51.406Z,77.20
2023-03-02T14:42:21.107Z,74.90
2023-03-02T14:44:50.484Z,76.10
2023-03-02T14:47:19.422Z,73.70
2023-03-02T14:49:46.723Z,71.40
2023-03-02T14:52:38.700Z,69.30
2023-03-02T14:55:25.878Z,61.50
2023-03-02T14:58:10.261Z,62.50
2023-03-02T15:00:37.361Z,65.40
2023-03-02T15:03:04.268Z,65.90
2023-03-02T15:05:31.992Z,65.80
2023-03-02T15:07:59.019Z,66.10
2023-03-02T15:10:25.991Z,67.80
2023-03-02T15:12:52.864Z,69.60
2023-03-02T15:15:19.892Z,70.90
2023-03-02T15:17:46.759Z,71.50
2023-03-02T15:20:17.314Z,71.20
2023-03-02T15:22:44.694Z,68.70
2023-03-02T15:25:11.827Z,70.30
2023-03-02T15:27:38.779Z,70.40
2023-03-02T15:30:06.558Z,69.60
2023-03-02T15:32:33.555Z,69.30
2023-03-02T15:35:00.669Z,69.10
2023-03-02T15:37:28.405Z,68.70
2023-03-02T15:39:56.566Z,68.30
2023-03-02T15:42:23.863Z,67.40
2023-03-02T15:44:50.755Z,66.80
2023-03-02T15:47:18.173Z,66.70
2023-03-02T15:49:45.024Z,66.30
2023-03-02T15:52:12.703Z,66.00
2023-03-02T15:54:39.950Z,65.70
2023-03-02T15:57:07.672Z,65.10
2023-03-02T15:59:34.855Z,64.70
2023-03-02T16:02:02.478Z,64.50
2023-03-02T16:04:31.727Z,63.20
2023-03-02T16:06:59.577Z,61.80
2023-03-02T16:09:28.968Z,61.00
2023-03-02T16:11:56.231Z,60.20
2023-03-02T16:14:23.653Z,60.40
2023-03-02T16:16:51.898Z,60.60
2023-03-02T16:19:19.704Z,60.90
2023-03-02T16:21:48.138Z,60.90
2023-03-02T16:24:17.079Z,61.30
2023-03-02T16:26:44.791Z,62.20
2023-03-02T16:29:14.573Z,62.10
2023-03-02T16:31:41.921Z,62.10
2023-03-02T16:34:10.332Z,62.90
2023-03-02T16:36:39.898Z,63.10
2023-03-02T16:39:09.093Z,63.30
2023-03-02T16:41:38.168Z,63.60
2023-03-02T16:44:05.507Z,64.00
2023-03-02T16:46:36.727Z,64.40
2023-03-02T16:49:05.077Z,64.50
2023-03-02T16:51:32.433Z,64.80
2023-03-02T16:53:59.540Z,65.30
2023-03-02T16:56:26.594Z,65.70
2023-03-02T16:58:54.473Z,66.00
2023-03-02T17:01:23.973Z,66.20
2023-03-02T17:03:52.434Z,66.30
2023-03-02T17:06:22.895Z,66.40
2023-03-02T17:08:50.832Z,66.70
2023-03-02T17:11:18.601Z,67.00
2023-03-02T17:13:45.786Z,67.30
2023-03-02T17:16:13.004Z,67.60
2023-03-02T17:18:41.087Z,67.80
2023-03-02T17:21:08.542Z,68.00
2023-03-02T17:23:37.021Z,68.20
2023-03-02T17:26:04.558Z,68.50
2023-03-02T17:28:31.985Z,68.70
2023-03-02T17:31:00.318Z,68.70
2023-03-02T17:33:29.500Z,68.80
2023-03-02T17:35:56.396Z,69.00
2023-03-02T17:38:23.689Z,69.20
2023-03-02T17:40:50.565Z,69.20
2023-03-02T17:43:17.511Z,69.50
2023-03-02T17:45:44.539Z,69.60
2023-03-02T17:48:11.536Z,69.60
2023-03-02T17:50:38.568Z,69.70
2023-03-02T17:53:05.468Z,69.80
2023-03-02T17:55:32.447Z,70.00
2023-03-02T17:57:59.419Z,70.00
2023-03-02T18:00:26.586Z,70.20
2023-03-02T18:02:54.070Z,70.40
2023-03-02T18:05:21.854Z,70.50
2023-03-02T18:07:52.857Z,70.60
2023-03-02T18:10:19.902Z,70.70
2023-03-02T18:12:47.868Z,70.80
2023-03-02T18:15:14.925Z,70.90
2023-03-02T18:17:41.848Z,71.00
2023-03-02T18:20:10.056Z,71.20
2023-03-02T18:22:37.099Z,71.20
2023-03-02T18:25:04.507Z,71.30
2023-03-02T18:27:31.491Z,71.30
2023-03-02T18:29:58.787Z,71.40
2023-03-02T18:32:26.089Z,71.50
2023-03-02T18:34:53.105Z,71.60
2023-03-02T18:37:20.127Z,71.80
2023-03-02T18:39:47.017Z,71.90
2023-03-02T18:42:14.076Z,72.00
2023-03-02T18:44:41.231Z,72.00
2023-03-02T18:47:08.592Z,72.10
2023-03-02T18:49:35.432Z,72.20
2023-03-02T18:52:06.877Z,72.20
2023-03-02T18:54:33.964Z,72.30
2023-03-02T18:57:01.685Z,72.40
2023-03-02T18:59:29.618Z,72.40
2023-03-02T19:01:57.412Z,72.50
2023-03-02T19:04:26.701Z,72.60
2023-03-02T19:06:56.042Z,72.60
2023-03-02T19:09:23.729Z,72.60
2023-03-02T19:11:50.741Z,72.70
2023-03-02T19:14:18.341Z,72.80
2023-03-02T19:16:46.043Z,72.90
2023-03-02T19:19:13.466Z,72.90
2023-03-02T19:21:40.700Z,73.00
2023-03-02T19:24:08.016Z,73.00
2023-03-02T19:26:35.629Z,73.20
2023-03-02T19:29:02.759Z,73.20
2023-03-02T19:31:30.491Z,73.30
2023-03-02T19:33:57.848Z,73.40
2023-03-02T19:36:25.090Z,73.90
2023-03-02T19:38:51.999Z,73.40
2023-03-02T19:41:20.475Z,73.50
2023-03-02T19:43:47.671Z,73.60
2023-03-02T19:46:16.449Z,73.80
2023-03-02T19:48:44.375Z,73.80
2023-03-02T19:51:13.475Z,73.80
2023-03-02T19:53:41.831Z,73.60
2023-03-02T19:56:14.266Z,73.70
2023-03-02T19:58:47.715Z,73.50
2023-03-02T20:01:24.739Z,73.70
2023-03-02T20:03:53.104Z,73.70
2023-03-02T20:06:24.049Z,73.70
2023-03-02T20:08:52.171Z,73.80
2023-03-02T20:11:19.398Z,73.80
2023-03-02T20:13:48.279Z,73.80
2023-03-02T20:16:15.741Z,73.90
2023-03-02T20:18:43.063Z,73.90
2023-03-02T20:21:10.126Z,74.00
2023-03-02T20:23:37.463Z,74.00
2023-03-02T20:26:05.613Z,74.10
2023-03-02T20:28:33.148Z,74.20
2023-03-02T20:31:08.852Z,74.30
2023-03-02T20:33:43.104Z,74.30
2023-03-02T20:36:12.786Z,74.10
2023-03-02T20:38:50.222Z,74.30
2023-03-02T20:41:18.483Z,73.80
2023-03-02T20:43:45.646Z,74.30
2023-03-02T20:46:21.858Z,74.90
2023-03-02T20:48:49.606Z,73.90
2023-03-02T20:51:17.028Z,74.50
2023-03-02T20:53:46.975Z,74.60
2023-03-02T20:56:19.265Z,74.60
2023-03-02T20:58:47.921Z,74.20
2023-03-02T21:01:17.917Z,74.50
2023-03-02T21:03:45.643Z,74.60
2023-03-02T21:06:15.251Z,74.60
2023-03-02T21:08:43.257Z,74.60
2023-03-02T21:11:17.856Z,74.70
2023-03-02T21:13:47.586Z,74.70
2023-03-02T21:16:27.754Z,74.80
2023-03-02T21:18:56.168Z,74.20
2023-03-02T21:21:40.424Z,74.80
2023-03-02T21:24:16.931Z,74.80
2023-03-02T21:26:46.748Z,74.90
2023-03-02T21:29:14.969Z,74.90
2023-03-02T21:31:43.921Z,75.00
2023-03-02T21:34:13.731Z,75.10
2023-03-02T21:37:25.865Z,75.10
2023-03-02T21:39:53.532Z,74.00
2023-03-02T21:42:21.225Z,75.20
2023-03-02T21:44:48.136Z,75.30
2023-03-02T21:47:15.075Z,75.30
2023-03-02T21:49:41.942Z,75.30
2023-03-02T21:52:08.840Z,75.30
2023-03-02T21:54:35.673Z,75.30
2023-03-02T21:57:02.510Z,75.40
2023-03-02T21:59:30.681Z,75.30
2023-03-02T22:01:57.552Z,75.40
2023-03-02T22:04:24.405Z,75.40
2023-03-02T22:06:51.231Z,75.20
2023-03-02T22:09:18.106Z,75.20
2023-03-02T22:11:46.003Z,75.30
2023-03-02T22:14:17.565Z,75.50
2023-03-02T22:16:47.840Z,75.50
2023-03-02T22:19:28.796Z,75.50
2023-03-02T22:21:59.837Z,74.60
2023-03-02T22:24:30.009Z,73.10
2023-03-02T22:27:08.947Z,75.30
2023-03-02T22:29:44.566Z,75.20
2023-03-02T22:32:23.250Z,75.50
2023-03-02T22:34:54.170Z,75.10
2023-03-02T22:37:34.529Z,75.60
2023-03-02T22:40:26.702Z,74.70
2023-03-02T22:43:12.433Z,75.70
2023-03-02T22:45:41.782Z,75.00
2023-03-02T22:48:29.585Z,75.70
2023-03-02T22:50:56.526Z,74.30
2023-03-02T22:53:32.575Z,75.80
2023-03-02T22:56:18.394Z,75.60
2023-03-02T22:58:49.918Z,75.80
2023-03-02T23:01:24.429Z,76.00
2023-03-02T23:04:11.883Z,75.80
2023-03-02T23:06:45.253Z,75.60
2023-03-02T23:09:23.507Z,75.90
2023-03-02T23:11:51.635Z,76.00
2023-03-02T23:14:41.543Z,76.00
2023-03-02T23:17:35.090Z,75.90
2023-03-02T23:20:03.129Z,74.60
2023-03-02T23:22:31.981Z,76.10
2023-03-02T23:24:58.984Z,76.20
2023-03-02T23:27:25.950Z,76.20
2023-03-02T23:29:53.327Z,76.10
2023-03-02T23:32:20.415Z,76.20
2023-03-02T23:34:47.482Z,76.20
2023-03-02T23:37:14.304Z,76.20
2023-03-02T23:39:41.260Z,76.40
2023-03-02T23:42:08.644Z,76.30
2023-03-02T23:44:35.418Z,76.30
2023-03-02T23:47:02.237Z,76.40
2023-03-02T23:49:29.066Z,76.50
2023-03-02T23:51:55.873Z,76.60
2023-03-02T23:54:22.742Z,76.60
2023-03-02T23:56:49.612Z,76.60
2023-03-02T23:59:16.411Z,76.60
